createdAt,value
2023-04-21T00:01:36.026Z,37.99
2023-04-21T00:04:11.114Z,37.60
2023-04-21T00:06:48.957Z,37.67
2023-04-21T00:09:20.144Z,37.46
2023-04-21T00:11:54.437Z,37.79
2023-04-21T00:14:26.421Z,37.97
2023-04-21T00:16:59.409Z,37.83
2023-04-21T00:19:37.788Z,37.61
2023-04-21T00:22:17.164Z,37.98
2023-04-21T00:24:52.560Z,37.99
2023-04-21T00:27:33.732Z,37.67
2023-04-21T00:30:10.534Z,37.88
2023-04-21T00:32:51.174Z,37.75
2023-04-21T00:35:36.437Z,37.54
2023-04-21T00:38:08.089Z,37.76
2023-04-21T00:40:45.218Z,37.76
2023-04-21T00:43:23.245Z,37.57
2023-04-21T00:46:02.972Z,37.79
2023-04-21T00:48:36.029Z,37.71
2023-04-21T00:51:09.377Z,37.79
2023-04-21T00:53:39.343Z,37.63
2023-04-21T00:56:10.848Z,37.72
2023-04-21T00:58:45.674Z,37.75
2023-04-21T01:01:19.218Z,37.83
2023-04-21T01:03:56.036Z,37.67
2023-04-21T01:06:37.957Z,37.63
2023-04-21T01:09:12.793Z,37.60
2023-04-21T01:12:05.917Z,37.73
2023-04-21T01:14:40.749Z,37.36
2023-04-21T01:17:18.847Z,37.39
2023-04-21T01:19:56.580Z,37.44
2023-04-21T01:22:33.210Z,37.34
2023-04-21T01:25:03.700Z,37.62
2023-04-21T01:27:35.899Z,37.53
2023-04-21T01:30:06.802Z,37.46
2023-04-21T01:32:35.373Z,37.17
2023-04-21T01:35:14.220Z,37.16
2023-04-21T01:37:53.105Z,37.46
2023-04-21T01:40:25.466Z,37.32
2023-04-21T01:43:04.331Z,37.34
2023-04-21T01:45:39.080Z,37.01
2023-04-21T01:48:22.942Z,37.16
2023-04-21T01:50:58.056Z,36.78
2023-04-21T01:53:33.224Z,37.04
2023-04-21T01:56:07.837Z,37.02
2023-04-21T01:58:40.992Z,37.17
2023-04-21T02:01:16.754Z,37.00
2023-04-21T02:03:51.885Z,36.86
2023-04-21T02:06:25.056Z,36.92
2023-04-21T02:08:57.529Z,37.04
2023-04-21T02:11:36.030Z,36.79
2023-04-21T02:14:12.172Z,36.85
2023-04-21T02:16:51.450Z,36.94
2023-04-21T02:19:25.076Z,36.87
2023-04-21T02:22:00.983Z,36.90
2023-04-21T02:24:30.846Z,36.82
2023-04-21T02:27:02.112Z,36.69
2023-04-21T02:29:38.312Z,36.90
2023-04-21T02:32:22.290Z,36.73
2023-04-21T02:34:56.315Z,36.41
2023-04-21T02:37:30.619Z,36.77
2023-04-21T02:40:06.610Z,36.60
2023-04-21T02:42:42.215Z,36.92
2023-04-21T02:45:17.435Z,36.86
2023-04-21T02:47:47.770Z,36.94
2023-04-21T02:50:20.297Z,36.99
2023-04-21T02:52:55.718Z,36.84
2023-04-21T02:55:28.988Z,37.18
2023-04-21T02:57:59.355Z,37.19
2023-04-21T03:00:34.922Z,37.12
2023-04-21T03:03:14.588Z,37.46
2023-04-21T03:05:51.012Z,36.99
2023-04-21T03:08:24.172Z,37.38
2023-04-21T03:10:54.744Z,37.42
2023-04-21T03:13:24.446Z,37.32
2023-04-21T03:15:57.549Z,37.69
2023-04-21T03:18:28.247Z,37.50
2023-04-21T03:21:07.247Z,37.62
2023-04-21T03:23:40.795Z,37.50
2023-04-21T03:26:13.595Z,37.61
2023-04-21T03:28:46.344Z,37.40
2023-04-21T03:31:20.200Z,37.81
2023-04-21T03:33:55.325Z,37.50
2023-04-21T03:36:28.114Z,37.72
2023-04-21T03:39:06.255Z,37.60
2023-04-21T03:41:52.091Z,37.68
2023-04-21T03:44:30.457Z,37.62
2023-04-21T03:47:03.222Z,37.68
2023-04-21T03:49:37.440Z,37.72
2023-04-21T03:52:12.196Z,37.66
2023-04-21T03:54:47.386Z,37.86
2023-04-21T03:57:15.430Z,37.55
2023-04-21T03:59:46.486Z,37.81
2023-04-21T04:02:23.333Z,37.67
2023-04-21T04:04:58.845Z,37.63
2023-04-21T04:07:35.425Z,37.52
2023-04-21T04:10:06.311Z,37.65
2023-04-21T04:12:38.471Z,37.73
2023-04-21T04:15:09.343Z,37.77
2023-04-21T04:17:44.963Z,37.66
2023-04-21T04:20:17.936Z,38.02
2023-04-21T04:22:49.139Z,37.80
2023-04-21T04:25:22.192Z,37.62
2023-04-21T04:27:55.696Z,37.80
2023-04-21T04:30:28.496Z,37.54
2023-04-21T04:33:03.940Z,37.83
2023-04-21T04:35:36.977Z,37.81
2023-04-21T04:38:07.549Z,38.02
2023-04-21T04:40:46.139Z,37.56
2023-04-21T04:43:26.015Z,37.83
2023-04-21T04:45:56.086Z,37.68
2023-04-21T04:48:31.410Z,38.03
2023-04-21T04:51:01.719Z,37.93
2023-04-21T04:53:31.541Z,37.61
2023-04-21T04:56:07.393Z,37.54
2023-04-21T04:58:37.891Z,37.84
2023-04-21T05:01:17.753Z,37.77
2023-04-21T05:03:50.016Z,37.62
2023-04-21T05:06:22.112Z,37.78
2023-04-21T05:08:56.136Z,37.61
2023-04-21T05:11:33.722Z,37.72
2023-04-21T05:14:11.474Z,37.92
2023-04-21T05:16:45.876Z,37.82
2023-04-21T05:19:18.512Z,37.64
2023-04-21T05:21:51.833Z,37.91
2023-04-21T05:24:25.354Z,37.86
2023-04-21T05:26:57.340Z,37.91
2023-04-21T05:29:27.309Z,37.72
2023-04-21T05:31:57.405Z,37.80
2023-04-21T05:34:25.088Z,37.58
2023-04-21T05:36:56.351Z,38.41
2023-04-21T05:39:28.406Z,37.73
2023-04-21T05:42:04.122Z,37.93
2023-04-21T05:44:42.380Z,37.87
2023-04-21T05:47:17.985Z,37.86
2023-04-21T05:49:54.802Z,37.85
2023-04-21T05:52:30.686Z,37.78
2023-04-21T05:55:06.135Z,38.23
2023-04-21T05:57:41.344Z,37.93
2023-04-21T06:00:14.608Z,38.10
2023-04-21T06:02:51.534Z,38.25
2023-04-21T06:05:30.559Z,38.18
2023-04-21T06:07:58.506Z,37.96
2023-04-21T06:10:34.198Z,37.97
2023-04-21T06:13:09.584Z,37.75
2023-04-21T06:15:45.634Z,37.75
2023-04-21T06:18:17.280Z,37.50
2023-04-21T06:20:54.397Z,37.55
2023-04-21T06:23:27.564Z,37.51
2023-04-21T06:26:06.840Z,37.66
2023-04-21T06:28:35.664Z,37.43
2023-04-21T06:31:06.877Z,37.57
2023-04-21T06:33:42.333Z,37.65
2023-04-21T06:36:12.481Z,37.56
2023-04-21T06:38:43.089Z,37.80
2023-04-21T06:41:10.890Z,37.84
2023-04-21T06:43:41.011Z,37.88
2023-04-21T06:46:12.164Z,37.76
2023-04-21T06:48:40.094Z,37.67
2023-04-21T06:51:07.478Z,37.49
2023-04-21T06:53:38.427Z,37.80
2023-04-21T06:56:11.097Z,37.46
2023-04-21T06:58:46.638Z,37.75
2023-04-21T07:01:20.727Z,37.83
2023-04-21T07:03:53.283Z,37.88
2023-04-21T07:06:22.290Z,38.00
2023-04-21T07:08:50.218Z,37.95
2023-04-21T07:11:29.482Z,37.87
2023-04-21T07:14:01.982Z,37.92
2023-04-21T07:16:40.450Z,37.77
2023-04-21T07:19:08.550Z,37.97
2023-04-21T07:21:36.428Z,38.02
2023-04-21T07:24:09.350Z,37.73
2023-04-21T07:26:45.300Z,37.95
2023-04-21T07:29:19.439Z,38.04
2023-04-21T07:31:48.550Z,38.15
2023-04-21T07:34:20.753Z,38.08
2023-04-21T07:36:53.981Z,37.77
2023-04-21T07:39:23.932Z,37.83
2023-04-21T07:41:56.662Z,38.09
2023-04-21T07:44:30.157Z,37.96
2023-04-21T07:47:05.707Z,37.90
2023-04-21T07:49:38.881Z,38.14
2023-04-21T07:52:16.955Z,38.21
2023-04-21T07:54:47.307Z,38.13
2023-04-21T07:57:18.420Z,38.17
2023-04-21T07:59:52.746Z,38.04
2023-04-21T08:02:27.944Z,38.21
2023-04-21T08:05:07.371Z,38.08
2023-04-21T08:07:46.624Z,38.03
2023-04-21T08:10:24.859Z,38.15
2023-04-21T08:13:06.567Z,38.03
2023-04-21T08:15:37.732Z,37.85
2023-04-21T08:18:22.786Z,37.95
2023-04-21T08:20:55.699Z,37.88
2023-04-21T08:23:34.007Z,38.37
2023-04-21T08:26:12.705Z,38.23
2023-04-21T08:28:45.964Z,38.34
2023-04-21T08:31:16.305Z,38.49
2023-04-21T08:33:58.062Z,38.31
2023-04-21T08:36:32.236Z,38.47
2023-04-21T08:39:08.441Z,38.24
2023-04-21T08:41:47.789Z,38.23
2023-04-21T08:44:27.971Z,38.14
2023-04-21T08:47:03.330Z,38.42
2023-04-21T08:49:42.735Z,38.32
2023-04-21T08:52:20.872Z,38.34
2023-04-21T08:54:52.614Z,38.38
2023-04-21T08:57:28.784Z,38.31
2023-04-21T09:00:07.358Z,38.29
2023-04-21T09:03:04.424Z,38.30
2023-04-21T09:05:43.074Z,38.26
2023-04-21T09:08:17.548Z,38.19
2023-04-21T09:10:53.993Z,38.28
2023-04-21T09:13:36.574Z,38.03
2023-04-21T09:16:25.232Z,38.14
2023-04-21T09:19:01.339Z,37.99
2023-04-21T09:21:50.852Z,37.91
2023-04-21T09:24:23.561Z,38.29
2023-04-21T09:27:06.059Z,38.21
2023-04-21T09:29:46.206Z,37.94
2023-04-21T09:32:30.777Z,37.93
2023-04-21T09:35:07.751Z,38.00
2023-04-21T09:37:48.808Z,37.86
2023-04-21T09:40:26.464Z,37.80
2023-04-21T09:43:02.883Z,37.79
2023-04-21T09:45:40.503Z,37.95
2023-04-21T09:48:22.285Z,37.79
2023-04-21T09:53:39.162Z,37.38
2023-04-21T09:56:17.118Z,37.73
2023-04-21T09:59:01.363Z,37.62
2023-04-21T10:01:39.094Z,37.60
2023-04-21T10:04:13.962Z,37.67
2023-04-21T10:06:46.089Z,37.52
2023-04-21T10:09:21.557Z,37.22
2023-04-21T10:11:59.520Z,37.06
2023-04-21T10:14:42.258Z,37.20
2023-04-21T10:17:20.799Z,37.13
2023-04-21T10:19:57.475Z,37.17
2023-04-21T10:22:36.278Z,37.09
2023-04-21T10:25:17.045Z,37.01
2023-04-21T10:27:59.030Z,37.25
2023-04-21T10:30:34.632Z,37.25
2023-04-21T10:33:12.534Z,36.89
2023-04-21T10:36:04.075Z,37.00
2023-04-21T10:38:43.913Z,37.24
2023-04-21T10:41:31.276Z,36.91
2023-04-21T10:44:19.211Z,36.93
2023-04-21T10:46:47.930Z,36.67
2023-04-21T10:49:30.300Z,37.05
2023-04-21T10:52:02.726Z,36.84
2023-04-21T10:54:42.102Z,37.09
2023-04-21T10:57:22.003Z,37.10
2023-04-21T10:59:52.319Z,37.16
2023-04-21T11:02:22.130Z,36.95
2023-04-21T11:04:58.211Z,37.00
2023-04-21T11:07:26.353Z,36.65
2023-04-21T11:10:11.891Z,36.69
2023-04-21T11:12:40.882Z,37.15
2023-04-21T11:15:14.358Z,36.74
2023-04-21T11:17:47.212Z,37.05
2023-04-21T11:20:18.078Z,36.68
2023-04-21T11:22:52.828Z,36.83
2023-04-21T11:25:23.023Z,36.82
2023-04-21T11:27:59.954Z,36.76
2023-04-21T11:30:34.864Z,36.92
2023-04-21T11:33:02.969Z,36.85
2023-04-21T11:35:31.724Z,36.71
2023-04-21T11:38:08.153Z,36.88
2023-04-21T11:40:49.015Z,37.06
2023-04-21T11:43:20.019Z,36.75
2023-04-21T11:45:53.658Z,36.96
2023-04-21T11:48:24.269Z,36.66
2023-04-21T11:50:59.714Z,36.71
2023-04-21T11:53:32.489Z,36.66
2023-04-21T11:56:02.464Z,36.58
2023-04-21T11:58:31.394Z,36.58
2023-04-21T12:00:59.193Z,36.64
2023-04-21T12:03:33.257Z,36.47
2023-04-21T12:06:07.514Z,36.73
2023-04-21T12:08:40.868Z,36.75
2023-04-21T12:11:11.823Z,36.88
2023-04-21T12:13:44.961Z,36.83
2023-04-21T12:16:15.939Z,37.03
2023-04-21T12:19:00.811Z,36.96
2023-04-21T12:21:30.805Z,36.61
2023-04-21T12:24:05.720Z,36.66
2023-04-21T12:26:42.577Z,36.65
2023-04-21T12:29:16.489Z,36.98
2023-04-21T12:31:47.890Z,36.66
2023-04-21T12:34:23.202Z,36.70
2023-04-21T12:37:03.030Z,36.61
2023-04-21T12:39:42.206Z,36.62
2023-04-21T12:42:23.374Z,36.77
2023-04-21T12:45:05.369Z,36.75
2023-04-21T12:47:45.438Z,36.61
2023-04-21T12:50:24.005Z,36.75
2023-04-21T12:53:00.948Z,36.61
2023-04-21T12:55:39.097Z,36.68
2023-04-21T12:58:17.658Z,36.58
2023-04-21T13:00:56.513Z,36.67
2023-04-21T13:03:32.739Z,36.96
2023-04-21T13:06:06.966Z,37.02
2023-04-21T13:08:37.871Z,36.59
2023-04-21T13:11:16.026Z,36.87
2023-04-21T13:13:54.466Z,37.08
2023-04-21T13:16:30.234Z,36.82
2023-04-21T13:19:06.577Z,37.09
2023-04-21T13:21:38.246Z,37.11
2023-04-21T13:24:14.859Z,37.25
2023-04-21T13:26:45.265Z,37.36
2023-04-21T13:29:18.178Z,37.11
2023-04-21T13:31:48.345Z,37.41
2023-04-21T13:34:19.529Z,37.13
2023-04-21T13:36:52.567Z,37.46
2023-04-21T13:39:23.153Z,36.84
2023-04-21T13:41:58.619Z,37.16
2023-04-21T13:44:32.331Z,37.20
2023-04-21T13:47:00.909Z,36.91
2023-04-21T13:49:32.875Z,36.77
2023-04-21T13:52:08.957Z,36.89
2023-04-21T13:54:38.988Z,36.43
2023-04-21T13:57:06.680Z,36.94
2023-04-21T13:59:37.416Z,36.49
2023-04-21T14:02:13.024Z,36.25
2023-04-21T14:04:43.813Z,35.94
2023-04-21T14:07:19.632Z,35.97
2023-04-21T14:09:52.950Z,35.78
2023-04-21T14:12:23.085Z,35.40
2023-04-21T14:14:58.698Z,35.62
2023-04-21T14:17:44.001Z,36.05
2023-04-21T14:20:14.049Z,35.38
2023-04-21T14:22:44.998Z,35.42
2023-04-21T14:25:17.478Z,35.52
2023-04-21T14:27:45.214Z,35.48
2023-04-21T14:30:27.591Z,35.72
2023-04-21T14:32:55.479Z,35.31
2023-04-21T14:35:23.283Z,34.88
2023-04-21T14:37:55.400Z,35.49
2023-04-21T14:40:23.494Z,34.58
2023-04-21T14:42:59.665Z,34.90
2023-04-21T14:45:28.221Z,34.69
2023-04-21T14:48:01.603Z,34.43
2023-04-21T14:50:30.261Z,34.55
2023-04-21T14:53:01.340Z,34.62
2023-04-21T14:55:29.176Z,34.26
2023-04-21T14:57:59.214Z,34.27
2023-04-21T15:00:32.121Z,34.37
2023-04-21T15:03:00.190Z,33.97
2023-04-21T15:05:30.698Z,33.81
2023-04-21T15:08:01.346Z,34.11
2023-04-21T15:10:32.417Z,33.75
2023-04-21T15:13:00.839Z,33.81
2023-04-21T15:15:31.265Z,34.54
2023-04-21T15:18:02.443Z,34.43
2023-04-21T15:20:43.855Z,34.98
2023-04-21T15:23:13.432Z,35.28
2023-04-21T15:25:44.539Z,35.06
2023-04-21T15:28:18.746Z,34.59
2023-04-21T15:30:52.645Z,34.76
2023-04-21T15:33:28.492Z,35.19
2023-04-21T15:35:59.270Z,35.17
2023-04-21T15:38:35.851Z,35.76
2023-04-21T15:41:14.119Z,35.35
2023-04-21T15:43:52.772Z,35.76
2023-04-21T15:46:28.450Z,35.06
2023-04-21T15:49:02.876Z,35.79
2023-04-21T15:51:37.417Z,35.61
2023-04-21T15:54:13.983Z,35.50
2023-04-21T15:56:55.854Z,35.64
2023-04-21T15:59:32.823Z,35.21
2023-04-21T16:02:06.507Z,35.48
2023-04-21T16:04:46.656Z,35.39
2023-04-21T16:07:23.281Z,35.57
2023-04-21T16:10:02.226Z,35.51
2023-04-21T16:12:38.561Z,35.65
2023-04-21T16:17:50.364Z,36.00
2023-04-21T16:20:27.991Z,36.22
2023-04-21T16:23:14.060Z,36.46
2023-04-21T16:25:51.301Z,36.74
2023-04-21T16:28:30.049Z,36.64
2023-04-21T16:31:03.043Z,36.92
2023-04-21T16:33:38.712Z,36.94
2023-04-21T16:36:13.599Z,37.14
2023-04-21T16:38:49.768Z,36.99
2023-04-21T16:41:20.235Z,37.11
2023-04-21T16:43:50.812Z,37.24
2023-04-21T16:46:25.131Z,37.26
2023-04-21T16:48:52.510Z,37.54
2023-04-21T16:51:28.642Z,37.79
2023-04-21T16:53:58.909Z,37.34
2023-04-21T16:56:29.600Z,37.65
2023-04-21T16:58:57.142Z,37.75
2023-04-21T17:01:24.746Z,37.15
2023-04-21T17:03:52.437Z,37.28
2023-04-21T17:06:21.869Z,37.27
2023-04-21T17:08:49.549Z,37.60
2023-04-21T17:11:20.290Z,37.52
2023-04-21T17:13:47.806Z,37.47
2023-04-21T17:16:22.257Z,37.56
2023-04-21T17:18:54.885Z,37.41
2023-04-21T17:21:25.356Z,37.60
2023-04-21T17:23:55.952Z,37.77
2023-04-21T17:26:29.112Z,37.77
2023-04-21T17:28:59.455Z,37.56
2023-04-21T17:31:29.475Z,37.38
2023-04-21T17:33:57.305Z,37.67
2023-04-21T17:36:27.591Z,37.84
2023-04-21T17:38:59.222Z,37.90
2023-04-21T17:41:29.523Z,37.73
2023-04-21T17:43:57.127Z,37.70
2023-04-21T17:46:25.503Z,37.68
2023-04-21T17:48:54.433Z,37.78
2023-04-21T17:51:24.800Z,37.63
2023-04-21T17:53:52.619Z,37.85
2023-04-21T17:56:20.284Z,37.69
2023-04-21T17:58:53.015Z,37.78
2023-04-21T18:01:26.492Z,37.53
2023-04-21T18:03:57.765Z,37.82
2023-04-21T18:06:30.280Z,37.97
2023-04-21T18:08:57.835Z,38.15
2023-04-21T18:11:25.604Z,38.23
2023-04-21T18:13:54.481Z,37.93
2023-04-21T18:16:25.886Z,37.95
2023-04-21T18:18:56.681Z,37.97
2023-04-21T18:21:28.244Z,37.93
2023-04-21T18:23:56.625Z,38.03
2023-04-21T18:26:26.705Z,38.22
2023-04-21T18:28:59.819Z,38.21
2023-04-21T18:31:28.691Z,38.02
2023-04-21T18:34:00.039Z,38.06
2023-04-21T18:36:32.948Z,38.00
2023-04-21T18:39:03.221Z,38.24
2023-04-21T18:41:31.765Z,38.06
2023-04-21T18:43:59.376Z,38.08
2023-04-21T18:46:29.913Z,37.88
2023-04-21T18:49:01.279Z,38.01
2023-04-21T18:51:31.053Z,38.13
2023-04-21T18:54:01.345Z,37.96
2023-04-21T18:56:32.607Z,37.97
2023-04-21T18:59:00.640Z,38.14
2023-04-21T19:01:28.397Z,38.15
2023-04-21T19:03:56.137Z,38.18
2023-04-21T19:06:29.252Z,38.07
2023-04-21T19:08:57.799Z,37.85
2023-04-21T19:11:25.838Z,38.07
2023-04-21T19:13:58.870Z,38.06
2023-04-21T19:16:30.266Z,38.03
2023-04-21T19:18:57.834Z,38.19
2023-04-21T19:21:30.472Z,38.22
2023-04-21T19:24:00.323Z,38.01
2023-04-21T19:26:33.355Z,37.94
2023-04-21T19:29:04.969Z,38.11
2023-04-21T19:31:37.522Z,38.19
2023-04-21T19:34:08.509Z,38.21
2023-04-21T19:36:38.861Z,38.13
2023-04-21T19:39:07.640Z,38.27
2023-04-21T19:41:36.546Z,38.40
2023-04-21T19:44:05.625Z,38.49
2023-04-21T19:46:33.766Z,38.15
2023-04-21T19:49:06.770Z,38.31
2023-04-21T19:51:36.338Z,38.46
2023-04-21T19:54:11.552Z,38.33
2023-04-21T19:56:44.517Z,38.05
2023-04-21T19:59:14.850Z,38.41
2023-04-21T20:01:45.528Z,38.48
2023-04-21T20:04:13.275Z,38.71
2023-04-21T20:06:43.877Z,38.27
2023-04-21T20:09:11.576Z,38.29
2023-04-21T20:11:41.973Z,38.25
2023-04-21T20:14:15.139Z,38.43
2023-04-21T20:16:48.340Z,38.31
2023-04-21T20:19:18.403Z,38.36
2023-04-21T20:21:50.836Z,38.30
2023-04-21T20:24:21.399Z,38.43
2023-04-21T20:26:49.799Z,38.32
2023-04-21T20:29:19.860Z,38.52
2023-04-21T20:31:47.428Z,38.40
2023-04-21T20:34:15.431Z,38.42
2023-04-21T20:36:42.949Z,38.37
2023-04-21T20:39:10.930Z,38.69
2023-04-21T20:41:45.708Z,38.60
2023-04-21T20:44:13.123Z,38.35
2023-04-21T20:46:42.000Z,38.43
2023-04-21T20:49:13.046Z,38.53
2023-04-21T20:51:44.218Z,38.51
2023-04-21T20:54:13.806Z,38.64
2023-04-21T20:56:41.315Z,38.49
2023-04-21T20:59:08.936Z,38.63
2023-04-21T21:01:41.492Z,38.38
2023-04-21T21:04:09.278Z,38.62
2023-04-21T21:06:36.897Z,38.51
2023-04-21T21:09:07.484Z,38.74
2023-04-21T21:11:37.746Z,38.52
2023-04-21T21:14:10.440Z,38.52
2023-04-21T21:16:38.243Z,38.40
2023-04-21T21:19:08.266Z,38.75
2023-04-21T21:21:35.811Z,38.69
2023-04-21T21:24:03.318Z,38.67
2023-04-21T21:26:30.782Z,38.69
2023-04-21T21:28:58.156Z,38.79
2023-04-21T21:31:25.716Z,38.56
2023-04-21T21:33:58.989Z,38.68
2023-04-21T21:36:28.543Z,38.94
2023-04-21T21:39:01.863Z,38.88
2023-04-21T21:41:29.322Z,38.71
2023-04-21T21:43:59.266Z,38.89
2023-04-21T21:46:29.783Z,38.84
2023-04-21T21:48:59.844Z,38.85
2023-04-21T21:51:29.924Z,39.06
2023-04-21T21:53:57.269Z,38.69
2023-04-21T21:56:25.980Z,39.01
2023-04-21T21:58:56.381Z,38.69
2023-04-21T22:01:26.670Z,38.76
2023-04-21T22:03:54.916Z,38.92
2023-04-21T22:06:27.708Z,39.07
2023-04-21T22:08:58.410Z,38.93
2023-04-21T22:11:28.669Z,39.02
2023-04-21T22:13:57.711Z,39.04
2023-04-21T22:16:28.673Z,38.81
2023-04-21T22:19:01.927Z,39.03
2023-04-21T22:21:31.796Z,39.09
2023-04-21T22:24:08.541Z,39.03
2023-04-21T22:26:39.038Z,38.96
2023-04-21T22:29:07.092Z,38.88
2023-04-21T22:31:36.853Z,38.80
2023-04-21T22:34:07.876Z,39.14
2023-04-21T22:36:40.744Z,38.95
2023-04-21T22:39:11.641Z,38.98
2023-04-21T22:41:44.528Z,39.04
2023-04-21T22:44:14.320Z,38.82
2023-04-21T22:46:44.735Z,38.96
2023-04-21T22:49:15.441Z,38.96
2023-04-21T22:51:45.104Z,38.79
2023-04-21T22:54:12.418Z,38.95
2023-04-21T22:56:39.922Z,38.99
2023-04-21T22:59:10.186Z,38.99
2023-04-21T23:01:37.670Z,38.83
2023-04-21T23:04:05.317Z,38.84
2023-04-21T23:06:33.868Z,38.84
2023-04-21T23:09:01.312Z,38.93
2023-04-21T23:11:28.663Z,39.14
2023-04-21T23:13:57.876Z,38.74
2023-04-21T23:16:26.287Z,38.96
2023-04-21T23:18:53.741Z,38.84
2023-04-21T23:21:22.915Z,39.12
2023-04-21T23:23:52.896Z,38.94
2023-04-21T23:26:21.687Z,38.93
2023-04-21T23:28:49.151Z,39.10
2023-04-21T23:31:16.772Z,38.96
2023-04-21T23:33:46.447Z,38.90
2023-04-21T23:36:17.542Z,39.03
2023-04-21T23:38:47.792Z,39.00
2023-04-21T23:41:22.128Z,38.84
2023-04-21T23:43:53.565Z,39.02
2023-04-21T23:46:29.362Z,38.95
2023-04-21T23:48:59.515Z,39.20
2023-04-21T23:51:29.054Z,39.06
2023-04-21T23:53:56.803Z,38.93
2023-04-21T23:56:25.661Z,39.04
2023-04-21T23:58:56.066Z,39.16
